Time;durP1;ratioP1;P1;durP2;ratioP2;P2;SDS_P1;SDS_P2;PMS_P1;PMS_P2;Temp;Humidity;BMP_temperature;BMP_pressure;BME280_temperature;BME280_humidity;BME280_pressure;Samples;Min_cycle;Max_cycle;Signal;HPM_P1;HPM_P2
2022/05/11 00:00:04;;;;;;;9.00;8.30;;;16.10;99.90;;;;;;6257956;28;20486;-64
2022/05/11 00:03:07;;;;;;;8.23;7.63;;;16.00;99.90;;;;;;6260697;28;20549;-64
2022/05/11 00:06:12;;;;;;;8.60;7.90;;;16.00;99.90;;;;;;6261291;28;20497;-64
2022/05/11 00:09:15;;;;;;;9.00;8.20;;;15.90;99.90;;;;;;6265440;28;20966;-64
2022/05/11 00:12:18;;;;;;;8.30;7.70;;;15.90;99.90;;;;;;6274726;28;20476;-64
2022/05/11 00:15:23;;;;;;;8.40;7.73;;;15.90;99.90;;;;;;6274967;28;20797;-64
2022/05/11 00:18:26;;;;;;;8.67;7.97;;;15.90;99.90;;;;;;6274891;28;20470;-64
2022/05/11 00:21:31;;;;;;;9.10;8.30;;;15.80;99.90;;;;;;6274730;28;20982;-64
2022/05/11 00:24:35;;;;;;;8.67;7.90;;;15.80;99.90;;;;;;6274505;28;20474;-64
2022/05/11 00:27:38;;;;;;;8.87;7.90;;;15.80;99.90;;;;;;6277839;28;20479;-65
2022/05/11 00:30:42;;;;;;;8.83;8.00;;;15.70;99.90;;;;;;6279019;28;20466;-65
2022/05/11 00:33:45;;;;;;;8.70;8.00;;;15.70;99.90;;;;;;6278782;28;20470;-65
2022/05/11 00:36:49;;;;;;;8.30;7.50;;;15.70;99.90;;;;;;6275991;28;20462;-65
2022/05/11 00:39:53;;;;;;;8.97;8.27;;;15.80;99.90;;;;;;6274967;28;20478;-66
2022/05/11 00:42:56;;;;;;;8.63;7.83;;;15.80;99.90;;;;;;6274603;28;20481;-66
2022/05/11 00:46:16;;;;;;;8.33;7.63;;;15.70;99.90;;;;;;6274215;28;20977;-66
2022/05/11 00:49:35;;;;;;;8.00;7.40;;;15.70;99.90;;;;;;6274606;28;20508;-65
2022/05/11 00:52:44;;;;;;;8.70;7.83;;;15.70;99.90;;;;;;6274658;28;20455;-65
2022/05/11 00:55:52;;;;;;;8.20;7.60;;;15.70;99.90;;;;;;6274607;28;20918;-65
2022/05/11 00:58:59;;;;;;;9.53;8.70;;;15.60;99.90;;;;;;6274777;28;20938;-65
2022/05/11 01:02:06;;;;;;;9.07;8.33;;;15.60;99.90;;;;;;6260457;28;20497;-65
2022/05/11 01:05:10;;;;;;;8.80;7.93;;;15.50;99.90;;;;;;6274842;28;20470;-64
2022/05/11 01:08:17;;;;;;;7.63;7.13;;;15.40;99.90;;;;;;6273891;28;20954;-64
2022/05/11 01:11:21;;;;;;;9.03;8.30;;;15.50;99.90;;;;;;6272961;28;20806;-64
2022/05/11 01:14:29;;;;;;;9.60;8.60;;;15.40;99.90;;;;;;6272266;28;20488;-64
2022/05/11 01:17:34;;;;;;;10.97;8.20;;;15.40;99.90;;;;;;6276651;28;20990;-64
2022/05/11 01:20:37;;;;;;;8.60;7.67;;;15.40;99.90;;;;;;6277202;28;20471;-64
2022/05/11 01:23:48;;;;;;;8.60;7.90;;;15.50;99.90;;;;;;6277738;28;20485;-64
2022/05/11 01:26:52;;;;;;;9.30;8.50;;;15.40;99.90;;;;;;6277834;28;20581;-64
2022/05/11 01:29:58;;;;;;;9.20;8.40;;;15.40;99.90;;;;;;6278344;28;20565;-67
2022/05/11 01:33:01;;;;;;;9.60;8.33;;;15.40;99.90;;;;;;6278210;28;20466;-66
2022/05/11 01:36:12;;;;;;;9.00;8.30;;;15.40;99.90;;;;;;6278046;28;20481;-66
2022/05/11 01:39:15;;;;;;;9.13;8.23;;;15.30;99.90;;;;;;6277895;28;20466;-65
2022/05/11 01:42:20;;;;;;;8.50;7.90;;;15.30;99.90;;;;;;6277897;28;20474;-66
2022/05/11 01:45:24;;;;;;;10.07;9.10;;;15.30;99.90;;;;;;6277450;28;20484;-66
2022/05/11 01:48:27;;;;;;;8.57;7.87;;;15.40;99.90;;;;;;6277675;28;20470;-66
2022/05/11 01:51:31;;;;;;;8.40;7.80;;;15.30;99.90;;;;;;6277691;28;20942;-66
2022/05/11 01:54:34;;;;;;;8.37;7.57;;;15.30;99.90;;;;;;6277907;28;20837;-65
2022/05/11 01:57:39;;;;;;;8.90;8.10;;;15.30;99.90;;;;;;6277534;28;20493;-64
2022/05/11 02:00:44;;;;;;;10.10;8.07;;;15.30;99.90;;;;;;6277429;28;20474;-66
2022/05/11 02:03:48;;;;;;;8.37;7.77;;;15.20;99.90;;;;;;6277402;28;20471;-65
2022/05/11 02:10:12;;;;;;;9.27;8.37;;;15.10;99.90;;;;;;6277455;28;20494;-65
2022/05/11 02:13:16;;;;;;;8.27;7.67;;;15.10;99.90;;;;;;6277331;28;20481;-65
2022/05/11 02:16:19;;;;;;;8.73;7.83;;;15.10;99.90;;;;;;6277117;28;20474;-65
2022/05/11 02:19:23;;;;;;;8.60;7.70;;;15.10;99.90;;;;;;6275758;28;20481;-65
2022/05/11 02:22:26;;;;;;;10.67;9.77;;;15.10;99.90;;;;;;6275217;28;20461;-66
2022/05/11 02:25:29;;;;;;;9.70;8.80;;;15.10;99.90;;;;;;6275561;28;20921;-66
2022/05/11 02:28:33;;;;;;;9.57;8.67;;;15.00;99.90;;;;;;6275524;28;20507;-64
2022/05/11 02:31:38;;;;;;;11.80;8.33;;;15.00;99.90;;;;;;6275682;28;20439;-64
2022/05/11 02:38:20;;;;;;;9.10;8.20;;;14.90;99.90;;;;;;6223874;28;21053;-64
2022/05/11 02:41:24;;;;;;;8.57;7.87;;;14.90;99.90;;;;;;6223304;28;20502;-64
2022/05/11 02:44:29;;;;;;;8.90;8.30;;;14.90;99.90;;;;;;6274769;28;20538;-64
2022/05/11 02:47:32;;;;;;;9.10;8.23;;;14.80;99.90;;;;;;6276650;28;20482;-67
2022/05/11 02:50:37;;;;;;;9.10;8.40;;;14.70;99.90;;;;;;6276626;28;20474;-66
2022/05/11 02:53:40;;;;;;;10.23;9.37;;;14.70;99.90;;;;;;6276549;28;20824;-66
2022/05/11 02:56:43;;;;;;;9.20;8.20;;;14.70;99.90;;;;;;6276940;28;20784;-64
2022/05/11 02:59:49;;;;;;;9.27;8.30;;;14.70;99.90;;;;;;6276261;28;20551;-65
2022/05/11 03:02:52;;;;;;;9.90;9.00;;;14.60;99.90;;;;;;6276816;28;20466;-64
2022/05/11 03:05:55;;;;;;;10.30;9.40;;;14.60;99.90;;;;;;6275955;28;20607;-65
2022/05/11 03:08:58;;;;;;;9.23;8.43;;;14.50;99.90;;;;;;6271366;28;20569;-65
2022/05/11 03:12:02;;;;;;;10.43;9.30;;;14.50;99.90;;;;;;6275880;28;20477;-65
2022/05/11 03:15:08;;;;;;;9.37;8.57;;;14.50;99.90;;;;;;6275912;28;20471;-64
2022/05/11 03:18:13;;;;;;;9.40;8.60;;;14.50;99.90;;;;;;6275962;28;20466;-63
2022/05/11 03:21:17;;;;;;;11.00;10.07;;;14.50;99.90;;;;;;6276020;28;20486;-67
2022/05/11 03:24:20;;;;;;;9.97;8.97;;;14.50;99.90;;;;;;6275402;28;20480;-65
2022/05/11 03:27:23;;;;;;;11.50;10.40;;;14.50;99.90;;;;;;6276051;28;20600;-63
2022/05/11 03:30:28;;;;;;;9.77;8.90;;;14.40;99.90;;;;;;6275428;28;20478;-63
2022/05/11 03:36:51;;;;;;;10.53;9.60;;;14.40;99.90;;;;;;6275346;28;20483;-63
2022/05/11 03:39:55;;;;;;;8.83;8.03;;;14.50;99.90;;;;;;6273602;28;20470;-64
2022/05/11 03:42:58;;;;;;;10.37;9.47;;;14.40;99.90;;;;;;6274049;28;20474;-64
2022/05/11 03:46:03;;;;;;;10.10;9.10;;;14.40;99.90;;;;;;6273974;28;20462;-64
2022/05/11 03:49:06;;;;;;;10.20;8.77;;;14.50;99.90;;;;;;6273963;28;20783;-65
2022/05/11 03:52:12;;;;;;;10.17;9.20;;;14.40;99.90;;;;;;6273995;28;20465;-65
2022/05/11 03:55:17;;;;;;;11.77;8.93;;;14.40;99.90;;;;;;6275022;28;20492;-65
2022/05/11 03:58:20;;;;;;;11.53;9.17;;;14.40;99.90;;;;;;6274723;28;20481;-65
2022/05/11 04:01:30;;;;;;;9.93;9.00;;;14.40;99.90;;;;;;6273307;28;20585;-65
2022/05/11 04:04:33;;;;;;;11.60;9.73;;;14.40;99.90;;;;;;6274028;28;20879;-65
2022/05/11 04:07:36;;;;;;;12.10;11.00;;;14.50;99.90;;;;;;6274460;28;20478;-69
2022/05/11 04:10:39;;;;;;;9.03;8.20;;;14.50;99.90;;;;;;6274559;28;20442;-64
2022/05/11 04:13:42;;;;;;;9.00;8.13;;;14.60;99.90;;;;;;6274485;28;20438;-63
2022/05/11 04:16:47;;;;;;;10.20;9.17;;;14.70;99.90;;;;;;6274207;28;20484;-67
2022/05/11 04:19:50;;;;;;;10.57;9.57;;;14.80;99.90;;;;;;6274439;28;20462;-67
2022/05/11 04:22:55;;;;;;;11.60;10.07;;;14.90;99.90;;;;;;6273678;28;20465;-68
2022/05/11 04:25:58;;;;;;;12.57;9.50;;;15.00;99.90;;;;;;6273538;28;20488;-67
2022/05/11 04:29:01;;;;;;;11.50;10.30;;;15.10;99.90;;;;;;6273236;28;20470;-67
2022/05/11 04:32:07;;;;;;;11.10;10.20;;;15.20;99.90;;;;;;6274747;28;20462;-68
2022/05/11 04:35:11;;;;;;;12.13;10.30;;;15.20;99.90;;;;;;6274686;28;20482;-68
2022/05/11 04:38:14;;;;;;;10.97;9.97;;;15.40;99.90;;;;;;6274812;28;20474;-67
2022/05/11 04:41:18;;;;;;;10.30;9.37;;;15.50;99.90;;;;;;6274128;28;20474;-65
2022/05/11 04:44:28;;;;;;;12.43;10.80;;;15.70;99.90;;;;;;6273897;28;20485;-64
2022/05/11 04:47:36;;;;;;;10.40;9.40;;;15.80;99.90;;;;;;6274482;28;20478;-64
2022/05/11 04:50:42;;;;;;;13.07;11.00;;;16.00;99.90;;;;;;6277227;28;20505;-64
2022/05/11 04:53:45;;;;;;;13.27;10.10;;;16.10;99.90;;;;;;6279523;28;20502;-66
2022/05/11 04:56:48;;;;;;;12.93;10.23;;;16.20;99.90;;;;;;6279025;28;20976;-64
2022/05/11 04:59:51;;;;;;;10.47;9.40;;;16.30;99.90;;;;;;6279238;28;20477;-63
2022/05/11 05:02:56;;;;;;;10.83;9.83;;;16.40;99.90;;;;;;6278662;28;20961;-63
2022/05/11 05:05:59;;;;;;;10.57;9.70;;;16.50;99.90;;;;;;6263300;28;20562;-63
2022/05/11 05:09:04;;;;;;;9.90;8.90;;;16.60;99.90;;;;;;6266418;28;20486;-62
2022/05/11 05:12:08;;;;;;;13.27;9.70;;;16.70;99.90;;;;;;6266091;28;20470;-62
2022/05/11 05:15:13;;;;;;;14.40;10.90;;;16.90;99.90;;;;;;6262925;28;20470;-63
2022/05/11 05:18:17;;;;;;;12.23;9.37;;;17.00;99.90;;;;;;6259199;28;20632;-63
2022/05/11 05:21:20;;;;;;;13.83;10.10;;;17.10;99.90;;;;;;6275200;28;20501;-63
2022/05/11 05:24:28;;;;;;;24.23;10.83;;;17.30;99.90;;;;;;6278529;28;20532;-62
2022/05/11 05:27:31;;;;;;;11.70;10.50;;;17.40;99.90;;;;;;6277962;28;20552;-63
2022/05/11 05:33:59;;;;;;;10.53;9.30;;;17.80;99.90;;;;;;6278356;28;20565;-63
2022/05/11 05:37:03;;;;;;;9.40;8.50;;;17.90;99.60;;;;;;6278478;28;20946;-63
2022/05/11 05:40:07;;;;;;;12.90;10.23;;;18.00;99.40;;;;;;6278108;28;20470;-63
2022/05/11 05:43:11;;;;;;;9.90;8.90;;;18.40;98.90;;;;;;6279088;28;20657;-62
2022/05/11 05:46:16;;;;;;;9.70;8.77;;;18.60;98.60;;;;;;6277816;28;20929;-63
2022/05/11 05:49:20;;;;;;;9.50;8.70;;;19.10;97.90;;;;;;6278031;28;20486;-63
2022/05/11 05:52:26;;;;;;;10.93;8.47;;;19.80;97.00;;;;;;6278145;28;20228;-63
2022/05/11 05:55:29;;;;;;;9.40;8.37;;;20.30;95.70;;;;;;6277938;28;20208;-64
2022/05/11 05:58:32;;;;;;;10.63;8.30;;;20.80;94.80;;;;;;6277933;28;20224;-63
2022/05/11 06:01:35;;;;;;;10.00;9.00;;;21.40;93.60;;;;;;6277480;28;20239;-63
2022/05/11 06:04:40;;;;;;;12.53;9.00;;;21.90;92.40;;;;;;6281173;28;20210;-63
2022/05/11 06:07:44;;;;;;;9.57;8.63;;;22.50;91.20;;;;;;6282382;28;20232;-63
2022/05/11 06:10:48;;;;;;;8.87;7.97;;;23.20;89.70;;;;;;6282162;28;20295;-64
2022/05/11 06:13:51;;;;;;;10.73;8.37;;;23.80;85.30;;;;;;6278670;28;20238;-65
2022/05/11 06:16:54;;;;;;;9.37;8.33;;;24.00;83.20;;;;;;6278583;28;20277;-65
2022/05/11 06:19:59;;;;;;;9.57;8.50;;;24.40;81.60;;;;;;6272777;28;20231;-65
2022/05/11 06:23:03;;;;;;;10.13;8.87;;;25.00;79.00;;;;;;6277219;28;20236;-65
2022/05/11 06:26:08;;;;;;;10.70;8.70;;;25.60;75.90;;;;;;6277394;28;20238;-65
2022/05/11 06:29:12;;;;;;;10.00;8.80;;;26.30;72.00;;;;;;6277401;28;20224;-66
2022/05/11 06:32:18;;;;;;;10.60;9.50;;;27.00;68.70;;;;;;6279795;28;20227;-68
2022/05/11 06:35:23;;;;;;;9.93;9.03;;;27.60;65.10;;;;;;6280679;28;20223;-66
2022/05/11 06:38:27;;;;;;;9.90;8.23;;;28.10;62.60;;;;;;6276757;28;20299;-64
2022/05/11 06:41:30;;;;;;;9.50;8.60;;;28.80;59.80;;;;;;6276987;28;20693;-64
2022/05/11 06:44:33;;;;;;;10.17;8.63;;;29.60;56.30;;;;;;6277790;28;20222;-64
2022/05/11 06:47:37;;;;;;;9.07;8.23;;;30.30;54.00;;;;;;6276623;28;20250;-64
2022/05/11 06:50:42;;;;;;;8.77;7.97;;;30.70;52.30;;;;;;6277259;28;20237;-67
2022/05/11 07:00:29;;;;;;;8.25;7.57;;;32.60;46.20;;;;;;6276126;28;20242;-64
2022/05/11 07:03:32;;;;;;;8.48;7.35;;;33.20;44.80;;;;;;6276202;28;20227;-65
2022/05/11 07:06:37;;;;;;;9.52;8.63;;;33.80;42.40;;;;;;6275977;28;20241;-65
2022/05/11 07:09:40;;;;;;;7.95;7.28;;;34.60;41.70;;;;;;6276763;28;20246;-64
2022/05/11 07:12:46;;;;;;;10.13;8.02;;;35.00;39.70;;;;;;6276778;28;20337;-65
2022/05/11 07:15:50;;;;;;;8.82;7.90;;;35.70;38.10;;;;;;6275712;28;20237;-66
2022/05/11 07:18:53;;;;;;;11.18;10.15;;;36.30;36.80;;;;;;6276055;28;20246;-63
2022/05/11 07:21:58;;;;;;;10.40;9.45;;;36.90;37.10;;;;;;6276003;28;20258;-63
2022/05/11 07:25:01;;;;;;;11.43;10.25;;;37.60;36.00;;;;;;6275798;28;20229;-65
2022/05/11 07:28:05;;;;;;;13.63;10.43;;;37.70;33.90;;;;;;6266426;28;20249;-64
2022/05/11 07:31:08;;;;;;;11.50;10.35;;;38.20;33.80;;;;;;6275542;28;20241;-65
2022/05/11 07:34:11;;;;;;;12.98;11.15;;;38.20;33.60;;;;;;6275740;28;20227;-65
2022/05/11 07:37:16;;;;;;;10.63;9.73;;;38.60;33.30;;;;;;6274893;28;20280;-64
2022/05/11 07:40:23;;;;;;;10.23;9.23;;;38.50;33.50;;;;;;6275552;28;20237;-65
2022/05/11 07:43:26;;;;;;;11.30;10.23;;;39.30;31.80;;;;;;6275091;28;20531;-66
2022/05/11 07:46:34;;;;;;;11.38;10.38;;;40.20;30.80;;;;;;6274897;28;20227;-65
2022/05/11 07:49:38;;;;;;;10.75;9.73;;;41.20;29.60;;;;;;6275154;28;20630;-65
2022/05/11 07:52:44;;;;;;;13.65;9.50;;;42.00;28.60;;;;;;6275077;28;20199;-65
2022/05/11 07:55:47;;;;;;;9.90;9.00;;;42.40;28.00;;;;;;6275106;28;20198;-65
2022/05/11 08:02:11;;;;;;;9.52;8.68;;;42.60;27.10;;;;;;6275209;28;20230;-63
2022/05/11 08:05:18;;;;;;;9.32;8.65;;;43.50;26.40;;;;;;6256045;28;20219;-64
2022/05/11 08:08:22;;;;;;;9.00;8.20;;;44.50;25.80;;;;;;6232122;28;20224;-65
2022/05/11 08:11:25;;;;;;;8.88;7.88;;;45.00;24.90;;;;;;6250280;28;20667;-64
2022/05/11 08:14:28;;;;;;;9.27;8.43;;;44.90;24.40;;;;;;6232148;28;20232;-65
2022/05/11 08:17:34;;;;;;;11.77;7.60;;;44.70;24.50;;;;;;6225481;28;20229;-65
2022/05/11 08:20:40;;;;;;;8.70;7.97;;;44.50;24.80;;;;;;6225396;28;20679;-64
2022/05/11 08:23:46;;;;;;;9.23;8.40;;;43.90;25.00;;;;;;6249499;28;20270;-64
2022/05/11 08:26:51;;;;;;;7.97;7.28;;;42.90;25.90;;;;;;6257681;28;20232;-64
2022/05/11 08:33:27;;;;;;;9.45;8.57;;;41.10;26.80;;;;;;6258021;28;20234;-64
2022/05/11 08:36:50;;;;;;;8.70;7.85;;;39.70;27.80;;;;;;6257711;28;20240;-64
2022/05/11 08:39:54;;;;;;;9.15;8.20;;;38.30;29.60;;;;;;6241341;28;20560;-65
2022/05/11 08:42:58;;;;;;;8.77;8.05;;;37.00;30.80;;;;;;6233100;28;20675;-64
2022/05/11 08:46:11;;;;;;;8.30;7.60;;;36.00;31.80;;;;;;6232872;28;20236;-64
2022/05/11 08:49:24;;;;;;;8.10;7.32;;;35.30;31.90;;;;;;6233546;28;20224;-65
2022/05/11 08:52:41;;;;;;;9.40;8.50;;;34.60;33.40;;;;;;6233403;28;20232;-64
2022/05/11 08:55:48;;;;;;;9.35;8.05;;;34.00;35.30;;;;;;6233462;28;20308;-64
2022/05/11 08:58:54;;;;;;;10.95;7.18;;;33.60;36.30;;;;;;6233257;28;20298;-64
2022/05/11 09:02:04;;;;;;;7.38;6.88;;;33.00;34.70;;;;;;6232785;28;20555;-63
2022/05/11 09:05:08;;;;;;;7.05;6.45;;;32.50;34.80;;;;;;6240057;28;20232;-64
2022/05/11 09:08:12;;;;;;;7.45;6.75;;;32.20;37.10;;;;;;6257224;28;20719;-62
2022/05/11 09:11:24;;;;;;;8.70;7.90;;;32.00;36.70;;;;;;6257755;28;20230;-62
2022/05/11 09:14:34;;;;;;;8.60;7.88;;;31.50;38.60;;;;;;6237503;28;20247;-62
2022/05/11 09:17:40;;;;;;;9.25;7.90;;;31.20;39.50;;;;;;6232819;28;20347;-62
2022/05/11 09:20:47;;;;;;;7.80;7.10;;;30.60;39.80;;;;;;6232745;28;20573;-63
2022/05/11 09:24:02;;;;;;;7.80;7.03;;;30.30;40.00;;;;;;6232780;28;20236;-63
2022/05/11 09:27:10;;;;;;;8.20;7.43;;;30.10;41.00;;;;;;6233061;28;20232;-63
2022/05/11 09:30:20;;;;;;;6.67;6.07;;;29.60;40.60;;;;;;6232843;28;20251;-64
2022/05/11 09:33:27;;;;;;;6.57;5.70;;;29.60;37.90;;;;;;6228425;28;20684;-63
2022/05/11 09:36:36;;;;;;;7.70;7.10;;;29.40;39.30;;;;;;6229738;28;20684;-63
2022/05/11 09:39:52;;;;;;;8.40;7.03;;;29.30;41.40;;;;;;6259641;28;20263;-63
2022/05/11 09:42:59;;;;;;;8.33;6.53;;;29.40;42.60;;;;;;6252848;28;20676;-63
2022/05/11 09:46:22;;;;;;;6.00;5.60;;;29.50;39.90;;;;;;6253089;28;20224;-64
2022/05/11 09:49:27;;;;;;;7.50;5.90;;;29.50;37.30;;;;;;6253218;28;20247;-64
2022/05/11 09:52:35;;;;;;;9.10;6.00;;;29.60;39.10;;;;;;6253544;28;20214;-63
2022/05/11 09:55:38;;;;;;;7.60;6.90;;;29.50;40.00;;;;;;6253145;28;20230;-64
2022/05/11 09:58:43;;;;;;;8.43;6.50;;;29.50;39.70;;;;;;6253267;28;20527;-63
2022/05/11 10:01:51;;;;;;;8.03;7.27;;;29.60;39.60;;;;;;6253026;28;20235;-63
2022/05/11 10:05:01;;;;;;;7.40;5.90;;;29.20;38.90;;;;;;6252997;28;20231;-63
2022/05/11 10:08:12;;;;;;;6.83;6.20;;;29.10;37.60;;;;;;6252266;28;20240;-64
2022/05/11 10:11:20;;;;;;;6.20;5.70;;;29.10;38.20;;;;;;6252969;28;20228;-63
2022/05/11 10:25:07;;;;;;;6.40;5.90;;;29.30;36.40;;;;;;6226068;28;20255;-63
2022/05/11 10:28:25;;;;;;;7.03;6.37;;;29.50;37.20;;;;;;6226196;28;20315;-63
2022/05/11 10:31:34;;;;;;;6.40;5.63;;;29.30;35.70;;;;;;6227883;28;20225;-63
2022/05/11 10:34:48;;;;;;;6.60;6.00;;;29.00;36.00;;;;;;6227091;28;20526;-62
2022/05/11 10:38:15;;;;;;;7.03;5.77;;;29.10;36.70;;;;;;6214064;28;20251;-62
2022/05/11 10:41:31;;;;;;;6.90;5.80;;;29.00;36.60;;;;;;6227148;28;20240;-63
2022/05/11 10:45:02;;;;;;;6.40;5.90;;;29.20;36.10;;;;;;6227149;28;20237;-63
2022/05/11 10:48:25;;;;;;;6.33;5.90;;;29.30;36.40;;;;;;6226882;28;20255;-63
2022/05/11 10:51:38;;;;;;;6.00;5.50;;;29.30;35.70;;;;;;6226662;28;20572;-63
2022/05/11 10:54:51;;;;;;;5.90;5.50;;;28.90;36.40;;;;;;6227368;28;20239;-63
2022/05/11 10:58:14;;;;;;;5.40;4.90;;;29.10;35.70;;;;;;6226769;28;20248;-63
2022/05/11 11:01:18;;;;;;;7.23;5.40;;;29.50;34.30;;;;;;6226928;28;20232;-63
2022/05/11 11:04:44;;;;;;;5.20;4.80;;;29.60;33.80;;;;;;6226728;28;20244;-64
2022/05/11 11:07:55;;;;;;;6.00;5.50;;;29.70;33.90;;;;;;6251172;28;20243;-63
2022/05/11 11:11:05;;;;;;;5.60;5.10;;;30.00;34.10;;;;;;6251342;28;20223;-64
2022/05/11 11:14:11;;;;;;;4.70;4.40;;;30.10;33.10;;;;;;6251658;28;20309;-63
2022/05/11 11:17:35;;;;;;;5.05;4.65;;;30.30;33.00;;;;;;6251032;28;20232;-63
2022/05/11 11:20:46;;;;;;;5.45;4.95;;;30.40;31.80;;;;;;6251830;28;20233;-63
2022/05/11 11:24:17;;;;;;;5.05;4.57;;;30.40;31.20;;;;;;6253653;28;20311;-63
2022/05/11 11:27:40;;;;;;;5.35;4.95;;;30.30;32.00;;;;;;6251753;28;20248;-64
2022/05/11 11:31:16;;;;;;;6.03;5.47;;;30.30;32.00;;;;;;6251088;28;20251;-63
2022/05/11 11:34:23;;;;;;;5.70;5.20;;;30.30;31.70;;;;;;6250543;28;20224;-63
2022/05/11 11:37:44;;;;;;;6.93;5.10;;;30.30;31.80;;;;;;6250641;28;20259;-64
2022/05/11 11:41:11;;;;;;;5.30;5.00;;;30.30;31.80;;;;;;6241275;28;20212;-64
2022/05/11 11:44:30;;;;;;;5.22;4.93;;;30.30;32.00;;;;;;6250576;28;20228;-64
2022/05/11 11:47:51;;;;;;;5.40;5.10;;;30.20;32.30;;;;;;6246539;28;20228;-63
2022/05/11 11:50:58;;;;;;;5.30;4.90;;;30.20;32.60;;;;;;6225727;28;20237;-62
2022/05/11 11:54:01;;;;;;;5.73;5.20;;;30.10;31.90;;;;;;6226014;28;20231;-63
2022/05/11 11:57:07;;;;;;;5.60;5.20;;;30.20;32.10;;;;;;6225794;28;20247;-64
2022/05/11 12:00:49;;;;;;;6.13;5.30;;;30.20;32.60;;;;;;6225246;28;20596;-63
2022/05/11 12:03:58;;;;;;;6.50;5.90;;;30.20;33.00;;;;;;6226414;28;20240;-63
2022/05/11 12:17:25;;;;;;;5.88;5.57;;;30.40;33.80;;;;;;6250267;28;20232;-62
2022/05/11 12:20:42;;;;;;;6.47;5.85;;;30.40;33.10;;;;;;6250217;28;20235;-63
2022/05/11 12:23:52;;;;;;;5.97;5.47;;;30.10;33.50;;;;;;6249639;28;20307;-63
2022/05/11 12:26:58;;;;;;;5.60;5.20;;;30.00;33.90;;;;;;6249950;28;20310;-63
2022/05/11 12:30:04;;;;;;;5.43;5.03;;;30.00;33.30;;;;;;6249499;28;20227;-62
2022/05/11 12:33:09;;;;;;;6.50;5.50;;;30.00;34.00;;;;;;6249714;28;20231;-62
2022/05/11 12:36:14;;;;;;;6.43;5.70;;;30.00;33.60;;;;;;6249979;28;20240;-62
2022/05/11 12:39:29;;;;;;;5.33;4.83;;;29.80;34.20;;;;;;6250213;28;20227;-61
2022/05/11 12:42:37;;;;;;;6.93;5.37;;;29.50;34.50;;;;;;6249771;28;20545;-62
2022/05/11 12:45:44;;;;;;;5.80;5.40;;;29.30;34.90;;;;;;6245758;28;20232;-61
2022/05/11 12:48:54;;;;;;;6.40;5.70;;;29.30;35.20;;;;;;6249296;28;20269;-62
2022/05/11 12:52:03;;;;;;;5.43;5.00;;;29.00;35.40;;;;;;6249509;28;20228;-63
2022/05/11 12:55:07;;;;;;;5.70;5.17;;;29.00;35.50;;;;;;6249649;28;20227;-61
2022/05/11 12:58:17;;;;;;;6.10;5.60;;;29.00;35.00;;;;;;6249472;28;20235;-61
2022/05/11 13:01:22;;;;;;;6.00;5.50;;;28.90;35.10;;;;;;6249704;28;20242;-61
2022/05/11 13:04:26;;;;;;;7.70;5.67;;;28.90;35.20;;;;;;6249288;28;20306;-63
2022/05/11 13:07:36;;;;;;;5.77;4.97;;;28.80;35.50;;;;;;6249276;28;20242;-63
2022/05/11 13:10:40;;;;;;;6.17;5.67;;;28.80;35.70;;;;;;6249605;28;20239;-62
2022/05/11 13:13:45;;;;;;;5.33;4.93;;;28.80;36.10;;;;;;6239858;28;20205;-63
2022/05/11 13:16:51;;;;;;;5.93;5.40;;;28.90;36.00;;;;;;6229039;28;20226;-63
2022/05/11 13:19:57;;;;;;;7.60;5.27;;;28.90;36.00;;;;;;6229179;28;20664;-63
2022/05/11 13:23:02;;;;;;;6.00;5.50;;;28.90;36.00;;;;;;6229930;28;20289;-65
2022/05/11 13:26:07;;;;;;;5.83;5.43;;;28.80;35.40;;;;;;6229352;28;20743;-64
2022/05/11 13:29:22;;;;;;;6.20;5.60;;;28.80;35.90;;;;;;6229132;28;20224;-63
2022/05/11 13:32:26;;;;;;;5.77;5.27;;;28.80;35.90;;;;;;6229204;28;20229;-64
2022/05/11 13:35:31;;;;;;;5.90;5.20;;;28.80;36.10;;;;;;6228780;28;20311;-63
2022/05/11 13:38:36;;;;;;;6.00;5.43;;;28.90;36.00;;;;;;6228803;28;20247;-63
2022/05/11 13:41:58;;;;;;;5.87;5.47;;;28.70;36.00;;;;;;6228732;28;20291;-62
2022/05/11 13:45:05;;;;;;;5.83;5.43;;;28.50;36.20;;;;;;6228633;28;20250;-63
2022/05/11 13:48:23;;;;;;;5.40;5.00;;;28.50;36.40;;;;;;6230169;28;20232;-62
2022/05/11 13:51:29;;;;;;;6.20;5.70;;;28.20;36.70;;;;;;6253561;28;20228;-62
2022/05/11 13:54:44;;;;;;;6.10;5.70;;;28.10;37.30;;;;;;6253493;28;20228;-62
2022/05/11 13:57:47;;;;;;;5.87;5.37;;;27.90;37.70;;;;;;6229011;28;20232;-64
2022/05/11 14:00:51;;;;;;;6.73;5.40;;;28.00;37.60;;;;;;6228275;28;20228;-64
2022/05/11 14:03:57;;;;;;;6.30;5.80;;;28.10;37.80;;;;;;6228291;28;20236;-63
2022/05/11 14:07:04;;;;;;;6.80;6.30;;;28.20;37.00;;;;;;6248873;28;20232;-65
2022/05/11 14:10:09;;;;;;;6.07;5.57;;;28.20;37.00;;;;;;6251810;28;20664;-63
2022/05/11 14:13:13;;;;;;;7.60;5.67;;;28.30;37.60;;;;;;6241248;28;20228;-63
2022/05/11 14:16:21;;;;;;;6.07;5.33;;;28.30;37.70;;;;;;6225732;28;20250;-63
2022/05/11 14:19:25;;;;;;;7.73;5.37;;;28.40;37.20;;;;;;6227063;28;20247;-62
2022/05/11 14:22:29;;;;;;;5.93;5.50;;;28.30;37.30;;;;;;6226940;28;20228;-64
2022/05/11 14:25:35;;;;;;;6.50;5.90;;;28.30;37.40;;;;;;6228016;28;20251;-62
2022/05/11 14:28:56;;;;;;;5.87;5.33;;;28.40;36.50;;;;;;6232457;28;20685;-63
2022/05/11 14:32:00;;;;;;;5.83;5.43;;;28.50;36.60;;;;;;6245070;28;20804;-62
2022/05/11 14:35:04;;;;;;;6.33;5.73;;;28.50;36.60;;;;;;6227660;28;20668;-62
2022/05/11 14:38:07;;;;;;;6.20;5.70;;;28.50;36.60;;;;;;6246596;28;20262;-62
2022/05/11 14:41:12;;;;;;;6.07;5.57;;;28.40;37.20;;;;;;6252370;28;20645;-63
2022/05/11 14:44:15;;;;;;;6.30;5.80;;;28.40;37.00;;;;;;6251759;28;20238;-63
2022/05/11 14:47:18;;;;;;;5.93;5.50;;;28.50;36.70;;;;;;6227244;28;20585;-63
2022/05/11 14:50:23;;;;;;;6.27;5.70;;;28.50;36.60;;;;;;6246784;28;20238;-61
2022/05/11 14:53:26;;;;;;;6.40;5.70;;;28.40;36.50;;;;;;6242987;28;20663;-62
2022/05/11 14:56:31;;;;;;;6.13;5.53;;;28.50;36.80;;;;;;6251356;28;20242;-62
2022/05/11 15:02:54;;;;;;;5.70;5.30;;;28.50;36.80;;;;;;6221369;28;20253;-62
2022/05/11 15:05:58;;;;;;;6.80;6.00;;;28.40;37.20;;;;;;6251483;28;20231;-64
2022/05/11 15:09:01;;;;;;;7.40;5.50;;;28.40;37.70;;;;;;6251294;28;20231;-64
2022/05/11 15:15:39;;;;;;;5.90;5.33;;;28.50;37.40;;;;;;6200061;28;20221;-62
2022/05/11 15:18:42;;;;;;;8.87;6.07;;;28.50;37.40;;;;;;6226434;28;20239;-62
2022/05/11 15:21:45;;;;;;;5.77;5.27;;;28.40;37.20;;;;;;6226547;28;20232;-62
2022/05/11 15:24:49;;;;;;;7.23;5.67;;;28.30;37.80;;;;;;6226621;28;20243;-63
2022/05/11 15:27:53;;;;;;;6.50;6.10;;;28.30;38.20;;;;;;6236539;28;20243;-64
2022/05/11 15:30:57;;;;;;;6.17;5.53;;;28.40;38.40;;;;;;6233485;28;20215;-63
2022/05/11 15:34:00;;;;;;;6.30;5.80;;;28.30;38.10;;;;;;6249802;28;20236;-65
2022/05/11 15:37:03;;;;;;;6.03;5.53;;;28.30;38.20;;;;;;6231119;28;20221;-64
2022/05/11 15:40:08;;;;;;;7.30;6.70;;;28.30;38.10;;;;;;6225943;28;20238;-64
2022/05/11 15:43:15;;;;;;;6.40;5.70;;;28.40;38.20;;;;;;6226409;28;20335;-64
2022/05/11 15:46:33;;;;;;;6.43;5.53;;;28.30;37.80;;;;;;6225670;28;20243;-64
2022/05/11 15:49:38;;;;;;;6.13;5.63;;;28.30;38.40;;;;;;6239575;28;20636;-64
2022/05/11 15:52:47;;;;;;;5.87;5.47;;;28.20;38.30;;;;;;6250698;28;20218;-64
2022/05/11 15:55:51;;;;;;;7.17;6.53;;;28.10;38.10;;;;;;6246025;28;20184;-64
2022/05/11 15:58:55;;;;;;;6.80;6.20;;;28.10;38.50;;;;;;6250290;28;20231;-64
2022/05/11 16:01:58;;;;;;;6.30;5.90;;;28.10;38.30;;;;;;6250082;28;20306;-63
2022/05/11 16:05:02;;;;;;;6.07;5.57;;;28.20;38.40;;;;;;6250138;28;20234;-63
2022/05/11 16:08:06;;;;;;;6.23;5.80;;;28.10;38.00;;;;;;6249672;28;20735;-64
2022/05/11 16:11:22;;;;;;;6.90;6.20;;;28.10;38.00;;;;;;6248947;28;20232;-63
2022/05/11 16:14:27;;;;;;;6.63;6.13;;;28.10;38.60;;;;;;6250438;28;20238;-63
2022/05/11 16:20:52;;;;;;;7.67;6.97;;;28.00;40.30;;;;;;6250386;28;20227;-63
2022/05/11 16:24:00;;;;;;;7.13;6.23;;;27.80;40.70;;;;;;6249982;28;20227;-64
2022/05/11 16:27:03;;;;;;;7.60;7.00;;;27.80;40.90;;;;;;6250196;28;20231;-64
2022/05/11 16:30:09;;;;;;;7.53;6.93;;;27.70;41.00;;;;;;6249754;28;20223;-62
2022/05/11 16:33:14;;;;;;;7.23;6.73;;;27.70;41.20;;;;;;6251220;28;20317;-62
2022/05/11 16:36:17;;;;;;;6.83;6.33;;;27.70;41.60;;;;;;6243917;28;20625;-63
2022/05/11 16:39:22;;;;;;;7.10;6.50;;;27.60;41.40;;;;;;6227124;28;20232;-64
2022/05/11 16:42:26;;;;;;;7.27;6.67;;;27.40;42.10;;;;;;6225415;28;20236;-64
2022/05/11 16:45:36;;;;;;;8.03;7.00;;;27.40;42.80;;;;;;6226028;28;20680;-62
2022/05/11 16:48:39;;;;;;;7.83;7.20;;;27.20;43.60;;;;;;6246966;28;20228;-64
2022/05/11 16:51:43;;;;;;;7.90;7.20;;;27.10;43.90;;;;;;6255112;28;20439;-63
2022/05/11 16:54:46;;;;;;;7.30;6.77;;;27.00;44.40;;;;;;6254703;28;20556;-63
2022/05/11 16:57:50;;;;;;;7.20;6.53;;;26.90;44.10;;;;;;6254443;28;20232;-63
2022/05/11 17:00:57;;;;;;;8.83;6.60;;;26.90;45.00;;;;;;6254289;28;20581;-62
2022/05/11 17:04:00;;;;;;;7.10;6.50;;;26.80;44.60;;;;;;6244618;28;20582;-63